Time;durP1;ratioP1;P1;durP2;ratioP2;P2;SDS_P1;SDS_P2;PMS_P1;PMS_P2;Temp;Humidity;BMP_temperature;BMP_pressure;BME280_temperature;BME280_humidity;BME280_pressure;Samples;Min_cycle;Max_cycle;Signal;HPM_P1;HPM_P2
2022/04/04 00:01:05;;;;;;;;;23.00;18.00;;;;;7.79;71.25;102019.16;5015517;28;45380;-73
2022/04/04 00:03:31;;;;;;;;;17.75;17.25;;;;;7.74;70.75;102018.81;5015922;28;45362;-73
2022/04/04 00:05:57;;;;;;;;;19.00;16.00;;;;;7.73;71.61;102023.84;5016610;28;45950;-73
2022/04/04 00:08:22;;;;;;;;;15.50;14.50;;;;;7.67;71.25;102013.97;5031438;28;45526;-73
2022/04/04 00:10:48;;;;;;;;;20.50;15.25;;;;;7.64;71.89;102024.03;5034754;28;45453;-73
2022/04/04 00:13:14;;;;;;;;;15.25;15.25;;;;;7.61;71.12;102029.00;5025926;28;45341;-72
2022/04/04 00:15:41;;;;;;;;;23.00;16.75;;;;;7.57;71.27;102026.94;5016319;28;45377;-72
2022/04/04 00:18:10;;;;;;;;;14.75;14.75;;;;;7.53;71.00;102024.91;5016364;28;45333;-73
2022/04/04 00:20:39;;;;;;;;;15.25;13.75;;;;;7.51;71.22;102016.16;5015678;28;46156;-72
2022/04/04 00:23:07;;;;;;;;;16.50;15.00;;;;;7.51;71.71;102019.63;5031926;28;45837;-72
2022/04/04 00:25:33;;;;;;;;;18.00;16.00;;;;;7.52;71.73;102018.88;5035722;28;45238;-72
2022/04/04 00:27:58;;;;;;;;;19.25;17.25;;;;;7.48;71.79;102006.50;5035386;28;45452;-72
2022/04/04 00:30:24;;;;;;;;;19.25;17.00;;;;;7.45;71.91;102011.41;5017638;28;45912;-72
2022/04/04 00:32:49;;;;;;;;;13.00;13.00;;;;;7.44;72.13;102013.13;4997403;28;45482;-72
2022/04/04 00:35:15;;;;;;;;;19.25;17.25;;;;;7.38;71.50;102020.38;5015598;28;45293;-72
2022/04/04 00:37:41;;;;;;;;;20.00;14.75;;;;;7.32;72.26;102014.75;5016117;28;45440;-72
2022/04/04 00:40:08;;;;;;;;;18.50;16.25;;;;;7.32;71.52;102011.28;5015238;28;46294;-72
2022/04/04 00:42:34;;;;;;;;;16.25;16.25;;;;;7.31;71.94;102006.91;5016588;28;45908;-74
2022/04/04 00:45:00;;;;;;;;;17.00;14.50;;;;;7.29;72.37;102004.19;5014818;28;45860;-73
2022/04/04 00:47:26;;;;;;;;;18.75;16.00;;;;;7.22;71.51;102001.94;5015535;28;45499;-73
2022/04/04 00:49:51;;;;;;;;;14.75;14.50;;;;;7.21;71.77;102001.06;5014699;28;46115;-74
2022/04/04 00:52:18;;;;;;;;;19.00;15.50;;;;;7.19;71.90;102006.84;5014799;28;45437;-74
2022/04/04 00:54:45;;;;;;;;;16.00;14.00;;;;;7.18;72.07;102000.81;5015262;28;45302;-73
2022/04/04 00:57:11;;;;;;;;;15.00;11.00;;;;;7.19;72.49;102010.31;5015671;28;45500;-74
2022/04/04 00:59:37;;;;;;;;;17.50;15.75;;;;;7.20;72.53;102000.91;5015214;28;46130;-74
2022/04/04 01:02:04;;;;;;;;;17.75;14.50;;;;;7.24;72.22;102000.38;5014976;28;45916;-74
2022/04/04 01:04:30;;;;;;;;;15.25;14.00;;;;;7.22;72.01;102005.41;5020666;28;45400;-74
2022/04/04 01:06:55;;;;;;;;;17.50;14.75;;;;;7.20;72.09;102000.91;5015096;28;45554;-73
2022/04/04 01:09:21;;;;;;;;;15.50;14.50;;;;;7.17;72.23;101990.38;5015506;28;46012;-74
2022/04/04 01:12:22;;;;;;;;;16.50;14.00;;;;;7.16;72.20;101993.75;5018538;28;45300;-73
2022/04/04 01:14:48;;;;;;;;;18.25;15.50;;;;;7.18;72.05;101994.75;4975756;28;45322;-73
2022/04/04 01:17:18;;;;;;;;;18.75;16.00;;;;;7.18;71.97;101994.75;5019491;28;45459;-74
2022/04/04 01:19:45;;;;;;;;;13.00;13.00;;;;;7.15;73.40;101987.66;5018091;28;45433;-73
2022/04/04 01:22:13;;;;;;;;;16.75;15.75;;;;;7.10;73.70;101989.91;5018655;28;45305;-74
2022/04/04 01:24:39;;;;;;;;;14.25;12.75;;;;;7.08;73.29;101999.16;5018702;28;45431;-73
2022/04/04 01:27:08;;;;;;;;;17.75;14.00;;;;;7.06;73.97;101995.59;5018146;28;45499;-74
2022/04/04 01:29:34;;;;;;;;;17.00;16.50;;;;;7.01;74.20;101996.91;5029238;28;45308;-73
2022/04/04 01:32:01;;;;;;;;;16.50;14.75;;;;;6.95;74.55;101987.03;5035615;28;45253;-73
2022/04/04 01:34:26;;;;;;;;;20.50;16.50;;;;;6.88;75.09;101979.59;5016950;28;45416;-74
2022/04/04 01:36:52;;;;;;;;;19.00;17.00;;;;;6.86;75.17;101982.84;5017941;28;45446;-74
2022/04/04 01:39:19;;;;;;;;;22.00;17.00;;;;;6.85;75.79;101983.63;5037918;28;45446;-73
2022/04/04 01:41:44;;;;;;;;;19.25;16.25;;;;;6.82;75.41;101979.09;5037663;28;45876;-74
2022/04/04 01:44:11;;;;;;;;;20.25;17.00;;;;;6.81;75.35;101980.78;5038315;28;45344;-74
2022/04/04 01:46:37;;;;;;;;;18.00;17.50;;;;;6.78;75.14;101971.94;5020415;28;45612;-74
2022/04/04 01:49:04;;;;;;;;;17.25;17.25;;;;;6.74;75.12;101970.81;5037589;28;45595;-74
2022/04/04 01:51:32;;;;;;;;;20.00;17.25;;;;;6.73;75.75;101970.66;5037292;28;45879;-73
2022/04/04 01:53:58;;;;;;;;;19.50;17.75;;;;;6.73;75.71;101969.00;4998053;28;45346;-74
2022/04/04 01:56:24;;;;;;;;;22.25;20.75;;;;;6.70;76.31;101962.69;5027963;28;45482;-73
2022/04/04 01:58:50;;;;;;;;;17.25;17.25;;;;;6.70;76.53;101962.69;5037374;28;46025;-73
2022/04/04 02:01:22;;;;;;;;;21.00;18.50;;;;;6.70;76.75;101962.69;5019539;28;45897;-74
2022/04/04 02:03:49;;;;;;;;;16.75;16.75;;;;;6.67;77.82;101958.22;5037448;28;45418;-73
2022/04/04 02:06:15;;;;;;;;;17.25;16.00;;;;;6.64;77.07;101960.56;5037829;28;45572;-73
2022/04/04 02:08:44;;;;;;;;;18.50;15.75;;;;;6.62;76.76;101959.53;5017239;28;45396;-73
2022/04/04 02:11:11;;;;;;;;;20.25;16.00;;;;;6.61;76.37;101956.03;5017837;28;45425;-74
2022/04/04 02:13:37;;;;;;;;;18.25;14.50;;;;;6.60;75.77;101953.38;5017992;28;46240;-74
2022/04/04 02:16:04;;;;;;;;;19.75;16.25;;;;;6.56;75.41;101948.75;5017639;28;45627;-74
2022/04/04 02:18:31;;;;;;;;;16.25;14.00;;;;;6.50;75.80;101950.06;5017329;28;45362;-74
2022/04/04 02:20:57;;;;;;;;;14.75;13.50;;;;;6.45;75.91;101953.03;5016853;28;45911;-73
2022/04/04 02:23:24;;;;;;;;;15.00;14.75;;;;;6.40;76.13;101941.47;5017689;28;45361;-73
2022/04/04 02:25:52;;;;;;;;;17.25;14.50;;;;;6.38;75.62;101943.94;5017503;28;45402;-72
2022/04/04 02:28:18;;;;;;;;;20.00;16.50;;;;;6.37;75.73;101942.13;5019415;28;46273;-72
2022/04/04 02:30:45;;;;;;;;;16.00;15.00;;;;;6.39;75.71;101939.66;5036820;28;45796;-72
2022/04/04 02:33:18;;;;;;;;;18.50;16.00;;;;;6.38;75.60;101933.66;5018725;28;45292;-71
2022/04/04 02:35:44;;;;;;;;;15.50;13.00;;;;;6.38;75.69;101935.31;5029074;28;45388;-71
2022/04/04 02:38:11;;;;;;;;;16.75;11.25;;;;;6.37;75.19;101929.28;5017514;28;45454;-72
2022/04/04 02:40:38;;;;;;;;;12.50;12.50;;;;;6.38;75.38;101931.06;5017305;28;45258;-72
2022/04/04 02:43:05;;;;;;;;;13.00;13.00;;;;;6.39;76.07;101934.53;5016807;28;45401;-71
2022/04/04 02:45:31;;;;;;;;;15.50;14.25;;;;;6.33;76.04;101932.38;5017661;28;45654;-71
2022/04/04 02:47:57;;;;;;;;;14.25;13.25;;;;;6.31;75.67;101928.78;5016581;28;45792;-73
2022/04/04 02:50:22;;;;;;;;;17.00;15.00;;;;;6.27;75.48;101927.63;5017069;28;45316;-73
2022/04/04 02:52:48;;;;;;;;;12.75;11.75;;;;;6.29;75.56;101933.78;5016832;28;45353;-73
2022/04/04 02:57:58;;;;;;;;;14.50;13.25;;;;;6.21;75.90;101933.97;5016511;28;45738;-71
2022/04/04 03:00:24;;;;;;;;;13.50;11.25;;;;;6.18;76.08;101932.94;5016633;28;45390;-72
2022/04/04 03:02:56;;;;;;;;;9.50;9.00;;;;;6.16;76.56;101928.44;5025289;28;45365;-71
2022/04/04 03:05:22;;;;;;;;;13.75;10.75;;;;;6.13;76.50;101930.78;5018941;28;45371;-73
2022/04/04 03:07:48;;;;;;;;;12.25;12.00;;;;;6.11;76.37;101925.50;5021386;28;45487;-74
2022/04/04 03:10:14;;;;;;;;;14.50;13.50;;;;;6.12;76.74;101923.84;5016615;28;45415;-73
2022/04/04 03:12:41;;;;;;;;;14.00;12.75;;;;;6.13;76.81;101923.94;5024798;28;45542;-73
2022/04/04 03:15:12;;;;;;;;;16.00;14.00;;;;;6.10;77.79;101925.38;5037137;28;45247;-73
2022/04/04 03:17:47;;;;;;;;;19.25;16.50;;;;;6.08;77.42;101921.78;5021083;28;45531;-73
2022/04/04 03:20:14;;;;;;;;;37.25;34.00;;;;;6.06;78.26;101908.81;5016333;28;45879;-73
2022/04/04 03:22:44;;;;;;;;;42.50;35.25;;;;;6.03;77.30;101906.91;5016842;28;45423;-73
2022/04/04 03:25:11;;;;;;;;;38.50;35.50;;;;;6.01;77.76;101903.31;5016905;28;45452;-73
2022/04/04 03:27:40;;;;;;;;;25.75;23.00;;;;;5.98;77.04;101904.69;5013782;28;46822;-74
2022/04/04 03:30:09;;;;;;;;;23.50;21.75;;;;;5.97;77.26;101905.47;5034784;28;45895;-73
2022/04/04 03:32:35;;;;;;;;;32.25;27.75;;;;;5.93;77.32;101901.75;4978057;28;45262;-73
2022/04/04 03:35:02;;;;;;;;;43.25;37.75;;;;;5.93;77.01;101901.75;4996454;28;45231;-73
2022/04/04 03:37:28;;;;;;;;;27.00;25.75;;;;;5.92;77.04;101891.34;4996384;28;45318;-73
2022/04/04 03:39:53;;;;;;;;;23.00;16.25;;;;;5.89;76.67;101885.16;5016937;28;45442;-73
2022/04/04 03:42:19;;;;;;;;;17.00;14.00;;;;;5.90;76.48;101888.66;5036170;28;45411;-74
2022/04/04 03:44:46;;;;;;;;;14.75;12.50;;;;;5.88;76.71;101888.50;5036226;28;45385;-74
2022/04/04 03:47:12;;;;;;;;;12.25;12.00;;;;;5.88;76.72;101888.50;5036150;28;45506;-74
2022/04/04 03:49:38;;;;;;;;;13.00;13.00;;;;;5.87;76.40;101880.69;5036355;28;45806;-73
2022/04/04 03:52:06;;;;;;;;;14.00;12.50;;;;;5.89;76.57;101876.56;5017976;28;45277;-74
2022/04/04 03:54:33;;;;;;;;;12.25;12.25;;;;;5.90;76.33;101875.78;5035595;28;45297;-73
2022/04/04 03:56:59;;;;;;;;;12.25;12.25;;;;;5.89;76.53;101877.44;5017728;28;47710;-74
2022/04/04 03:59:25;;;;;;;;;14.25;13.00;;;;;5.90;76.67;101860.38;5018056;28;45522;-74
2022/04/04 04:01:51;;;;;;;;;15.75;15.00;;;;;5.95;76.69;101873.59;5033203;28;45301;-74
2022/04/04 04:04:16;;;;;;;;;10.75;10.75;;;;;5.95;76.78;101871.03;5016320;28;45305;-73
2022/04/04 04:06:42;;;;;;;;;16.25;15.25;;;;;5.99;76.43;101876.56;5020677;28;45383;-72
2022/04/04 04:09:07;;;;;;;;;21.25;17.75;;;;;6.00;76.34;101867.16;5015931;28;45372;-74
2022/04/04 04:11:34;;;;;;;;;19.00;16.75;;;;;6.00;76.12;101860.38;5015952;28;45347;-74
2022/04/04 04:14:00;;;;;;;;;20.75;19.75;;;;;6.02;76.45;101856.25;5015879;28;45417;-75
2022/04/04 04:16:26;;;;;;;;;18.75;15.75;;;;;6.08;76.63;101860.06;5022093;28;46004;-73
2022/04/04 04:18:52;;;;;;;;;18.75;18.50;;;;;6.10;76.15;101850.81;5029710;28;45938;-72
2022/04/04 04:21:18;;;;;;;;;18.75;17.75;;;;;6.08;76.56;101853.28;4998006;28;45353;-73
2022/04/04 04:23:44;;;;;;;;;23.25;20.00;;;;;6.07;76.12;101856.63;5015712;28;45396;-73
2022/04/04 04:26:13;;;;;;;;;21.00;16.25;;;;;6.06;76.15;101847.13;5015546;28;46024;-74
2022/04/04 04:28:46;;;;;;;;;20.25;13.75;;;;;6.07;75.36;101846.34;4997782;28;45860;-74
2022/04/04 04:31:14;;;;;;;;;18.50;13.25;;;;;6.04;74.99;101848.66;5014348;28;45356;-73
2022/04/04 04:33:40;;;;;;;;;18.50;14.00;;;;;6.05;75.84;101845.31;5016313;28;45417;-74
2022/04/04 04:36:07;;;;;;;;;17.00;14.75;;;;;6.04;75.60;101846.09;5015241;28;46083;-74
2022/04/04 04:38:34;;;;;;;;;13.75;12.25;;;;;6.03;75.33;101836.56;5015260;28;45370;-74
2022/04/04 04:41:01;;;;;;;;;18.25;14.50;;;;;6.01;74.59;101840.69;5015394;28;45342;-74
2022/04/04 04:43:26;;;;;;;;;14.75;14.50;;;;;5.98;74.48;101843.88;5016535;28;45563;-74
2022/04/04 04:45:52;;;;;;;;;16.00;13.00;;;;;5.94;74.86;101839.25;5018578;28;46035;-74
2022/04/04 04:48:18;;;;;;;;;16.50;13.50;;;;;5.90;74.71;101842.38;5018953;28;45373;-74
2022/04/04 04:50:44;;;;;;;;;17.00;15.75;;;;;5.86;75.41;101832.63;5018583;28;45258;-74
2022/04/04 04:53:10;;;;;;;;;14.75;14.75;;;;;5.82;75.06;101828.91;5023077;28;45162;-73
2022/04/04 04:55:36;;;;;;;;;14.00;13.75;;;;;5.78;74.72;101832.00;5035988;28;46195;-72
2022/04/04 04:58:02;;;;;;;;;15.75;14.75;;;;;5.77;74.76;101830.22;5018467;28;45428;-74
2022/04/04 05:00:29;;;;;;;;;14.75;12.75;;;;;5.73;74.58;101834.19;5020340;28;45423;-73
2022/04/04 05:05:40;;;;;;;;;14.50;14.00;;;;;5.65;75.40;101842.97;5024776;28;45365;-73
2022/04/04 05:08:07;;;;;;;;;13.75;13.00;;;;;5.62;76.02;101842.69;5018399;28;45851;-74
2022/04/04 05:10:33;;;;;;;;;20.75;15.25;;;;;5.58;75.75;101831.28;5018495;28;45285;-74
2022/04/04 05:12:58;;;;;;;;;17.25;14.00;;;;;5.56;75.60;101832.81;5031912;28;45500;-75
2022/04/04 05:15:24;;;;;;;;;17.00;16.25;;;;;5.53;76.03;101830.03;5018364;28;45368;-73
2022/04/04 05:17:52;;;;;;;;;16.75;13.00;;;;;5.52;76.32;101830.81;5018219;28;45293;-73
2022/04/04 05:20:18;;;;;;;;;13.50;13.50;;;;;5.50;76.53;101827.19;5025880;28;45459;-73
2022/04/04 05:22:44;;;;;;;;;19.50;14.75;;;;;5.52;76.78;101830.81;5036794;28;45510;-73
2022/04/04 05:25:11;;;;;;;;;17.00;14.00;;;;;5.52;76.15;101828.22;5034407;28;45336;-72
2022/04/04 05:27:38;;;;;;;;;15.00;13.25;;;;;5.52;77.09;101828.22;5018085;28;45400;-73
2022/04/04 05:30:05;;;;;;;;;16.00;13.00;;;;;5.52;77.00;101835.94;5010421;28;45392;-72
2022/04/04 05:32:31;;;;;;;;;16.25;13.50;;;;;5.51;76.91;101823.88;5038311;28;45620;-73
2022/04/04 05:34:56;;;;;;;;;16.75;14.25;;;;;5.50;76.78;101832.34;5026171;28;45502;-73
2022/04/04 05:37:22;;;;;;;;;14.25;12.25;;;;;5.50;76.77;101831.47;5018852;28;45694;-73
2022/04/04 05:39:47;;;;;;;;;17.50;13.00;;;;;5.49;76.66;101838.25;5038002;28;45387;-72
2022/04/04 05:42:13;;;;;;;;;16.25;16.00;;;;;5.48;76.65;101828.75;5038495;28;45379;-73
2022/04/04 05:44:39;;;;;;;;;15.25;13.25;;;;;5.48;76.97;101823.59;5034915;28;45923;-72
2022/04/04 05:47:04;;;;;;;;;16.00;12.75;;;;;5.52;77.08;101833.38;5015363;28;45845;-74
2022/04/04 05:49:30;;;;;;;;;12.50;12.00;;;;;5.50;76.27;101822.06;5021447;28;45524;-72
2022/04/04 05:51:56;;;;;;;;;13.75;12.25;;;;;5.49;77.09;101825.41;5016683;28;45538;-82
2022/04/04 05:54:21;;;;;;;;;16.50;15.25;;;;;5.47;77.03;101821.81;5018362;28;45687;-78
2022/04/04 05:56:47;;;;;;;;;20.00;19.25;;;;;5.47;76.61;101823.50;4999432;28;45286;-77
2022/04/04 05:59:13;;;;;;;;;17.25;14.75;;;;;5.45;77.10;101818.25;5017739;28;45340;-80
2022/04/04 06:01:40;;;;;;;;;11.75;10.00;;;;;5.46;76.82;101830.28;5001691;28;45244;-78
2022/04/04 06:04:06;;;;;;;;;17.00;16.50;;;;;5.49;77.14;101821.94;5017823;28;45282;-80
2022/04/04 06:06:34;;;;;;;;;15.00;14.00;;;;;5.51;76.77;101816.16;5017246;28;45592;-77
2022/04/04 06:09:00;;;;;;;;;14.00;14.00;;;;;5.53;76.97;101817.19;5016244;28;45456;-76
2022/04/04 06:11:26;;;;;;;;;17.00;15.25;;;;;5.54;77.12;101813.84;5016866;28;45432;-78
2022/04/04 06:13:51;;;;;;;;;19.00;15.00;;;;;5.57;76.27;101814.06;5016786;28;45564;-79
2022/04/04 06:16:17;;;;;;;;;16.00;13.50;;;;;5.57;76.03;101824.34;5021860;28;45310;-74
2022/04/04 06:18:43;;;;;;;;;15.75;12.50;;;;;5.56;76.55;101819.97;5028456;28;45214;-79
2022/04/04 06:21:09;;;;;;;;;14.25;13.75;;;;;5.56;76.10;101819.09;5017726;28;45497;-79
2022/04/04 06:23:36;;;;;;;;;13.75;13.00;;;;;5.56;76.64;101811.38;5017240;28;45409;-78
2022/04/04 06:26:06;;;;;;;;;17.50;14.00;;;;;5.57;76.20;101813.19;5016345;28;45848;-76
2022/04/04 06:28:33;;;;;;;;;17.25;15.25;;;;;5.60;75.53;101816.03;4997906;28;45366;-76
2022/04/04 06:30:59;;;;;;;;;14.50;13.50;;;;;5.57;75.82;101815.75;5000006;28;45290;-77
2022/04/04 06:33:26;;;;;;;;;15.75;14.00;;;;;5.55;76.01;101807.94;4997553;28;45794;-76
2022/04/04 06:35:52;;;;;;;;;14.75;13.00;;;;;5.56;76.39;101808.81;5012038;28;45535;-76
2022/04/04 06:38:20;;;;;;;;;12.75;12.75;;;;;5.61;75.62;101816.91;5017359;28;45329;-78
2022/04/04 06:40:48;;;;;;;;;11.00;11.00;;;;;5.59;75.61;101814.22;4998981;28;45448;-78
2022/04/04 06:43:14;;;;;;;;;13.00;12.00;;;;;5.52;75.73;101812.81;5017262;28;45275;-79
2022/04/04 06:45:41;;;;;;;;;12.25;12.00;;;;;5.53;75.68;101808.56;5017529;28;45363;-79
2022/04/04 06:48:06;;;;;;;;;15.00;12.75;;;;;5.57;76.20;101802.91;5017232;28;45609;-79
2022/04/04 06:50:32;;;;;;;;;12.00;12.00;;;;;5.64;76.23;101809.44;5017495;28;45591;-80
2022/04/04 06:52:58;;;;;;;;;14.50;12.00;;;;;5.67;75.85;101808.03;5016971;28;46266;-81
2022/04/04 06:55:24;;;;;;;;;15.25;11.50;;;;;5.72;75.30;101810.97;5017102;28;45277;-80
2022/04/04 06:57:50;;;;;;;;;7.00;7.00;;;;;5.77;74.77;101803.63;5016543;28;45548;-80
2022/04/04 07:00:16;;;;;;;;;14.50;13.25;;;;;5.76;74.69;101809.53;5018457;28;45406;-80
2022/04/04 07:02:44;;;;;;;;;14.00;12.00;;;;;5.75;74.49;101795.78;5001723;28;46320;-79
2022/04/04 07:05:10;;;;;;;;;9.00;7.75;;;;;5.80;74.10;101791.91;5017948;28;45875;-75
2022/04/04 07:07:36;;;;;;;;;9.50;7.50;;;;;5.86;73.61;101788.94;5015809;28;45365;-77
2022/04/04 07:10:03;;;;;;;;;7.75;7.25;;;;;5.90;72.17;101790.97;5016791;28;45143;-79
2022/04/04 07:12:29;;;;;;;;;11.25;11.25;;;;;5.88;71.39;101780.56;5016384;28;45396;-81
2022/04/04 07:14:55;;;;;;;;;13.25;9.50;;;;;5.91;70.76;101787.63;5017567;28;45443;-80
2022/04/04 07:17:21;;;;;;;;;12.75;9.00;;;;;5.91;70.29;101784.16;5016458;28;45452;-81
2022/04/04 07:19:46;;;;;;;;;13.25;10.75;;;;;5.93;69.33;101780.03;5022334;28;45374;-80
2022/04/04 07:22:14;;;;;;;;;9.75;9.75;;;;;5.94;69.16;101779.25;5022054;28;46336;-78
2022/04/04 07:24:40;;;;;;;;;8.75;7.50;;;;;5.94;67.71;101772.44;5018191;28;45719;-80
2022/04/04 07:27:06;;;;;;;;;9.25;7.50;;;;;5.96;67.19;101767.44;5015933;28;45394;-80
2022/04/04 07:29:31;;;;;;;;;9.50;8.00;;;;;5.98;65.80;101763.31;5016781;28;45736;-81
2022/04/04 07:31:57;;;;;;;;;7.00;7.00;;;;;5.97;65.52;101759.84;5016114;28;45491;-80
2022/04/04 07:34:22;;;;;;;;;8.50;6.50;;;;;5.96;65.01;101763.19;5016024;28;45550;-79
2022/04/04 07:36:48;;;;;;;;;9.50;9.50;;;;;5.98;65.46;101750.47;5016673;28;45400;-80
2022/04/04 07:39:14;;;;;;;;;8.75;7.50;;;;;6.05;66.01;101755.34;5016813;28;45337;-79
2022/04/04 07:41:39;;;;;;;;;10.00;8.25;;;;;6.08;64.81;101742.72;5016454;28;46246;-80
2022/04/04 07:44:06;;;;;;;;;10.00;10.00;;;;;6.14;64.37;101744.88;5016650;28;45474;-79
2022/04/04 07:46:31;;;;;;;;;7.50;7.50;;;;;6.19;64.00;101749.59;5017907;28;45305;-77
2022/04/04 07:48:58;;;;;;;;;10.00;7.00;;;;;6.23;63.97;101744.69;5018591;28;45180;-76
2022/04/04 07:51:24;;;;;;;;;8.50;6.00;;;;;6.30;62.74;101749.53;5019031;28;45442;-78
2022/04/04 07:53:50;;;;;;;;;6.75;5.75;;;;;6.33;61.89;101742.94;5016125;28;45249;-79
2022/04/04 07:56:16;;;;;;;;;5.00;5.00;;;;;6.38;60.14;101737.25;5023802;28;45441;-83
2022/04/04 07:58:42;;;;;;;;;6.50;3.25;;;;;6.41;60.37;101732.34;5017671;28;45660;-79
2022/04/04 08:01:08;;;;;;;;;3.75;3.75;;;;;6.45;58.54;101724.97;5016472;28;45407;-81
2022/04/04 08:03:34;;;;;;;;;7.00;6.00;;;;;6.50;58.65;101735.63;5016859;28;45464;-81
2022/04/04 08:06:00;;;;;;;;;6.75;4.50;;;;;6.56;57.40;101720.66;5016785;28;45482;-81
2022/04/04 08:08:25;;;;;;;;;5.25;4.50;;;;;6.65;57.59;101718.78;5015595;28;45546;-81
2022/04/04 08:10:51;;;;;;;;;6.00;3.25;;;;;6.74;56.97;101720.25;5015582;28;45501;-80
2022/04/04 08:13:17;;;;;;;;;3.75;2.00;;;;;6.83;55.88;101723.50;5016037;28;45382;-80
2022/04/04 08:15:44;;;;;;;;;3.50;3.50;;;;;6.94;56.39;101717.47;5018258;28;45277;-80
2022/04/04 08:18:09;;;;;;;;;6.75;5.00;;;;;7.03;56.15;101708.63;5017621;28;45238;-79
2022/04/04 08:20:35;;;;;;;;;5.25;5.25;;;;;7.07;55.94;101708.97;5018036;28;46045;-80
2022/04/04 08:23:01;;;;;;;;;4.00;4.00;;;;;7.09;54.71;101711.66;5016153;28;45234;-80
2022/04/04 08:25:26;;;;;;;;;8.75;3.75;;;;;7.11;54.12;101711.00;4998464;28;45890;-81
2022/04/04 08:27:52;;;;;;;;;3.75;3.00;;;;;7.13;54.60;101708.53;5015917;28;45369;-81
2022/04/04 08:30:19;;;;;;;;;4.00;4.00;;;;;7.16;54.02;101700.16;4998476;28;45459;-80
2022/04/04 08:32:46;;;;;;;;;3.25;3.25;;;;;7.22;53.33;101704.06;5015659;28;45477;-81
2022/04/04 08:35:13;;;;;;;;;3.50;3.00;;;;;7.28;53.07;101701.03;5016624;28;45524;-80
2022/04/04 08:37:43;;;;;;;;;2.25;2.00;;;;;7.31;52.43;101697.78;5017226;28;45201;-82
2022/04/04 08:40:12;;;;;;;;;3.00;3.00;;;;;7.33;52.53;101697.09;5014726;28;48148;-80
2022/04/04 08:42:38;;;;;;;;;2.50;2.50;;;;;7.42;52.09;101713.22;5018321;28;45227;-80
2022/04/04 08:45:06;;;;;;;;;4.00;4.00;;;;;7.49;52.18;101683.63;5019132;28;45254;-83
2022/04/04 08:47:33;;;;;;;;;4.00;4.00;;;;;7.59;51.89;101688.66;5017504;28;46071;-81
2022/04/04 08:50:00;;;;;;;;;3.00;1.00;;;;;7.72;51.04;101690.41;4998540;28;46800;-83
2022/04/04 08:52:27;;;;;;;;;4.75;4.00;;;;;7.79;50.70;101688.28;5016316;28;45301;-81
2022/04/04 08:54:53;;;;;;;;;2.50;2.50;;;;;7.80;49.83;101683.22;5016165;28;45180;-80
2022/04/04 08:57:19;;;;;;;;;3.50;3.00;;;;;7.76;49.58;101688.97;5016617;28;45395;-80
2022/04/04 08:59:45;;;;;;;;;2.00;2.00;;;;;7.82;49.58;101673.03;5015972;28;45309;-81
2022/04/04 09:02:12;;;;;;;;;1.75;1.75;;;;;7.86;49.11;101682.75;5016306;28;45359;-80
2022/04/04 09:04:39;;;;;;;;;2.00;2.00;;;;;7.93;49.79;101656.63;5016382;28;45380;-80
2022/04/04 09:07:07;;;;;;;;;3.00;3.00;;;;;8.08;49.15;101690.31;4997970;28;45419;-79
2022/04/04 09:09:41;;;;;;;;;4.00;2.25;;;;;8.15;48.06;101673.59;5013864;28;47012;-80
2022/04/04 09:12:10;;;;;;;;;4.00;3.50;;;;;8.17;48.22;101660.00;5017667;28;45328;-80
2022/04/04 09:14:37;;;;;;;;;3.00;3.00;;;;;8.20;48.80;101655.06;4997718;28;45426;-81
2022/04/04 09:17:07;;;;;;;;;3.00;3.00;;;;;8.26;48.02;101651.97;5015464;28;45517;-78
2022/04/04 09:19:33;;;;;;;;;3.00;3.00;;;;;8.30;46.82;101660.84;5015578;28;46717;-79
2022/04/04 09:22:10;;;;;;;;;3.00;3.00;;;;;8.33;45.61;101659.34;5015991;28;45324;-78
2022/04/04 09:24:49;;;;;;;;;4.00;3.00;;;;;8.36;45.88;101654.41;5016733;28;45369;-81
2022/04/04 09:27:33;;;;;;;;;1.50;1.50;;;;;8.42;45.13;101646.19;5016332;28;45371;-81
2022/04/04 09:30:01;;;;;;;;;2.75;2.25;;;;;8.42;44.35;101645.28;4998622;28;46842;-80
2022/04/04 09:32:46;;;;;;;;;1.00;1.00;;;;;8.40;44.27;101652.91;5019195;28;45396;-79
2022/04/04 09:35:17;;;;;;;;;2.50;2.00;;;;;8.35;44.48;101631.97;5018995;28;45171;-80
2022/04/04 09:37:48;;;;;;;;;4.25;3.00;;;;;8.33;43.69;101635.22;5018943;28;45317;-81
2022/04/04 09:40:16;;;;;;;;;5.00;2.00;;;;;8.30;43.49;101635.91;5021377;28;45410;-80
2022/04/04 09:43:02;;;;;;;;;3.00;1.25;;;;;8.30;43.02;101633.34;5021928;28;45424;-78
2022/04/04 09:45:30;;;;;;;;;3.00;2.00;;;;;8.27;42.24;101629.66;5018791;28;45864;-80
2022/04/04 09:47:58;;;;;;;;;3.25;2.00;;;;;8.23;43.46;101619.91;5018772;28;45480;-81
2022/04/04 09:50:30;;;;;;;;;1.50;1.50;;;;;8.21;43.24;101623.28;5000598;28;45632;-81
2022/04/04 09:52:57;;;;;;;;;2.00;2.00;;;;;8.22;42.31;101637.09;5018100;28;45391;-81
2022/04/04 09:55:30;;;;;;;;;1.75;1.75;;;;;8.25;42.21;101608.00;5018745;28;45448;-80
2022/04/04 09:58:06;;;;;;;;;2.00;2.00;;;;;8.29;41.40;101610.91;5017603;28;45454;-80
2022/04/04 10:00:35;;;;;;;;;2.00;2.00;;;;;8.33;42.23;101612.91;4999630;28;47373;-80
2022/04/04 10:03:02;;;;;;;;;1.25;1.25;;;;;8.37;41.63;101601.97;5017990;28;45737;-79
2022/04/04 10:05:29;;;;;;;;;2.00;0.00;;;;;8.44;40.64;101602.41;5001842;28;45436;-80
2022/04/04 10:07:56;;;;;;;;;3.00;2.00;;;;;8.52;40.88;101609.00;5022363;28;45548;-80
2022/04/04 10:10:27;;;;;;;;;4.00;2.00;;;;;8.60;40.50;101588.84;5018152;28;45329;-80
2022/04/04 10:12:53;;;;;;;;;7.00;5.50;;;;;8.70;40.72;101596.41;5028302;28;45910;-81
2022/04/04 10:15:23;;;;;;;;;3.50;3.50;;;;;8.74;40.39;101594.91;5018045;28;45362;-78
2022/04/04 10:17:50;;;;;;;;;4.00;3.00;;;;;8.88;41.19;101583.78;5017787;28;45598;-80
2022/04/04 10:20:17;;;;;;;;;2.75;1.75;;;;;9.07;40.58;101574.63;5031003;28;45444;-79
2022/04/04 10:22:44;;;;;;;;;5.00;3.00;;;;;9.28;40.18;101591.47;5032290;28;45240;-79
2022/04/04 10:25:14;;;;;;;;;5.00;2.00;;;;;9.47;39.17;101577.09;5029665;28;45216;-79
2022/04/04 10:27:44;;;;;;;;;3.00;2.00;;;;;9.59;38.36;101575.28;5023795;28;45199;-79
2022/04/04 10:30:10;;;;;;;;;2.75;2.75;;;;;9.65;37.91;101555.78;5023604;28;45411;-81
2022/04/04 10:32:50;;;;;;;;;2.50;2.50;;;;;9.73;37.60;101558.00;5025441;28;45978;-82
2022/04/04 10:35:24;;;;;;;;;1.25;1.25;;;;;9.87;37.79;101555.34;5021991;28;45234;-81
2022/04/04 10:37:50;;;;;;;;;1.75;1.75;;;;;9.97;38.25;101556.81;5019336;28;45152;-80
2022/04/04 10:40:25;;;;;;;;;2.00;2.00;;;;;10.13;37.63;101558.59;5017631;28;45755;-80
2022/04/04 10:43:10;;;;;;;;;4.25;2.75;;;;;10.32;38.13;101545.91;5017348;28;45841;-81
2022/04/04 10:45:56;;;;;;;;;5.00;4.00;;;;;10.37;37.38;101544.50;5017990;28;45290;-78
2022/04/04 10:48:32;;;;;;;;;3.00;3.00;;;;;10.45;37.33;101539.78;5017903;28;45258;-81
2022/04/04 10:51:18;;;;;;;;;4.25;3.00;;;;;10.47;38.04;101522.63;5016962;28;46124;-80
2022/04/04 10:53:53;;;;;;;;;2.00;1.75;;;;;10.51;37.16;101522.03;5016866;28;45791;-78
2022/04/04 10:56:24;;;;;;;;;0.25;0.25;;;;;10.62;37.82;101524.31;5017477;28;45402;-79
2022/04/04 10:58:52;;;;;;;;;3.75;3.00;;;;;10.72;38.03;101505.91;5019304;28;45179;-78
2022/04/04 11:01:21;;;;;;;;;3.00;3.00;;;;;10.80;37.09;101514.97;5018443;28;45446;-77
2022/04/04 11:03:52;;;;;;;;;3.00;3.00;;;;;10.88;37.09;101517.09;4999101;28;45388;-78
2022/04/04 11:09:22;;;;;;;;;3.50;3.50;;;;;10.86;36.62;101517.00;5017113;28;45304;-79
2022/04/04 11:11:56;;;;;;;;;4.50;4.50;;;;;10.79;36.40;101510.59;4998366;28;46734;-79
2022/04/04 11:14:28;;;;;;;;;4.75;4.00;;;;;10.78;36.89;101488.09;5016654;28;45968;-78
2022/04/04 11:17:06;;;;;;;;;4.00;4.00;;;;;10.84;37.74;101493.63;5016442;28;45278;-81
2022/04/04 11:19:48;;;;;;;;;6.00;5.00;;;;;10.96;37.58;101476.97;5016918;28;45885;-77
2022/04/04 11:22:16;;;;;;;;;3.50;3.50;;;;;11.00;36.91;101478.88;5016693;28;45244;-78
2022/04/04 11:24:51;;;;;;;;;6.00;4.00;;;;;10.99;36.81;101466.75;5018246;28;45263;-79
2022/04/04 11:27:17;;;;;;;;;5.25;4.00;;;;;11.03;37.11;101479.06;5024298;28;45238;-78
2022/04/04 11:29:43;;;;;;;;;5.50;4.00;;;;;10.94;36.84;101476.88;5018079;28;45332;-76
2022/04/04 11:32:15;;;;;;;;;3.00;3.00;;;;;10.98;36.95;101470.13;5016403;28;45954;-79